Airport View

Enter AWOS ICAO identifier for current METAR.

ex. KFNL

KCRW 191754Z 29007G14KT 240V340 9SM -SN SCT028 OVC036 M02/M08 A3011 RMK AO2 SNB02 SLP200 OCNL BINOVC P0000 60000 T10171078 10006 21017 50004

19 Jan 2020 18:30

Phone: 304-346-4797

Other Area AWOS: K6L4 - K3I2 - KBKW - KHTS

TAF KCRW 191747Z 1918/2018 30014G22KT P6SM SCT025 OVC050 TEMPO 1918/1919 6SM -SHSN BKN030 OVC050 FM192100 30011G18KT P6SM BKN035 FM200200 30010KT P6SM BKN025 FM200900 31005KT P6SM BKN025